Time;durP1;ratioP1;P1;durP2;ratioP2;P2;SDS_P1;SDS_P2;PMS_P1;PMS_P2;Temp;Humidity;BMP_temperature;BMP_pressure;BME280_temperature;BME280_humidity;BME280_pressure;Samples;Min_cycle;Max_cycle;Signal;HPM_P1;HPM_P2
2023/06/05 00:01:37;;;;;;;;;6.33;4.67;;;;;;;;4965004;28;45697;-77
2023/06/05 00:04:03;;;;;;;;;9.00;8.00;;;;;;;;4966559;28;45670;-76
2023/06/05 00:06:28;;;;;;;;;6.33;6.33;;;;;;;;4973748;28;46155;-77
2023/06/05 00:08:53;;;;;;;;;7.00;5.00;;;;;;;;4970090;28;46191;-75
2023/06/05 00:11:18;;;;;;;;;3.00;1.33;;;;;;;;4971447;28;45691;-76
2023/06/05 00:13:44;;;;;;;;;3.33;3.33;;;;;;;;4966223;28;45801;-75
2023/06/05 00:16:09;;;;;;;;;6.33;3.67;;;;;;;;4967297;28;46354;-75
2023/06/05 00:18:34;;;;;;;;;3.33;3.33;;;;;;;;4972739;28;45815;-75
2023/06/05 00:21:00;;;;;;;;;5.33;4.33;;;;;;;;4966337;28;45729;-77
2023/06/05 00:23:25;;;;;;;;;4.00;4.00;;;;;;;;4969982;28;45688;-76
2023/06/05 00:25:50;;;;;;;;;6.33;4.67;;;;;;;;4964730;28;45325;-75
2023/06/05 00:28:16;;;;;;;;;3.33;3.00;;;;;;;;4972316;28;44815;-76
2023/06/05 00:30:41;;;;;;;;;5.33;4.00;;;;;;;;4966396;28;45813;-75
2023/06/05 00:33:06;;;;;;;;;4.00;3.00;;;;;;;;4972059;28;45800;-76
2023/06/05 00:35:32;;;;;;;;;7.00;4.67;;;;;;;;4971872;28;46315;-76
2023/06/05 00:37:57;;;;;;;;;7.00;5.00;;;;;;;;4970640;28;45428;-76
2023/06/05 00:40:23;;;;;;;;;7.00;4.33;;;;;;;;4967930;28;45306;-75
2023/06/05 00:42:48;;;;;;;;;8.67;5.00;;;;;;;;4967327;28;45834;-76
2023/06/05 00:45:13;;;;;;;;;7.33;5.00;;;;;;;;4977220;28;45600;-76
2023/06/05 00:47:39;;;;;;;;;5.33;5.00;;;;;;;;4973756;28;45403;-77
2023/06/05 00:50:06;;;;;;;;;4.00;3.00;;;;;;;;4976397;28;45501;-76
2023/06/05 00:52:32;;;;;;;;;5.00;2.67;;;;;;;;4973430;28;45629;-75
2023/06/05 00:54:58;;;;;;;;;4.33;4.00;;;;;;;;4971523;28;47294;-77
2023/06/05 00:57:26;;;;;;;;;5.00;5.00;;;;;;;;4971543;28;45663;-77
2023/06/05 00:59:53;;;;;;;;;5.00;5.00;;;;;;;;4967431;28;45995;-75
2023/06/05 01:02:18;;;;;;;;;6.00;4.67;;;;;;;;4966397;28;46426;-77
2023/06/05 01:04:43;;;;;;;;;8.67;6.67;;;;;;;;4969833;28;46754;-75
2023/06/05 01:07:10;;;;;;;;;5.00;3.33;;;;;;;;4970810;28;45000;-75
2023/06/05 01:09:36;;;;;;;;;8.33;5.67;;;;;;;;4964772;28;45480;-76
2023/06/05 01:12:01;;;;;;;;;5.00;5.00;;;;;;;;4970244;28;45603;-76
2023/06/05 01:14:32;;;;;;;;;13.33;8.00;;;;;;;;4963592;28;45713;-78
2023/06/05 01:19:32;;;;;;;;;5.00;4.00;;;;;;;;4985882;28;45676;-83
2023/06/05 01:21:58;;;;;;;;;6.00;6.00;;;;;;;;4978934;28;46647;-84
2023/06/05 01:24:25;;;;;;;;;4.00;4.00;;;;;;;;5003190;28;46833;-83
2023/06/05 01:26:52;;;;;;;;;4.00;3.00;;;;;;;;4987708;28;45532;-84
2023/06/05 01:29:21;;;;;;;;;5.00;3.33;;;;;;;;4985832;28;46004;-82
2023/06/05 01:31:47;;;;;;;;;5.67;5.67;;;;;;;;4988977;28;45688;-81
2023/06/05 01:34:15;;;;;;;;;3.33;3.00;;;;;;;;5001634;28;47006;-82
2023/06/05 01:36:41;;;;;;;;;4.67;4.67;;;;;;;;4988761;28;45814;-82
2023/06/05 01:39:07;;;;;;;;;6.33;4.00;;;;;;;;4986513;28;45808;-84
2023/06/05 01:41:32;;;;;;;;;3.33;3.33;;;;;;;;4985345;28;45487;-83
2023/06/05 01:43:58;;;;;;;;;6.67;5.67;;;;;;;;4988782;28;47018;-82
2023/06/05 01:46:24;;;;;;;;;4.33;3.33;;;;;;;;4983468;28;46005;-82
2023/06/05 01:48:51;;;;;;;;;4.67;4.00;;;;;;;;4982380;28;45515;-82
2023/06/05 01:51:16;;;;;;;;;3.67;3.67;;;;;;;;4984227;28;45963;-81
2023/06/05 01:53:41;;;;;;;;;3.33;3.33;;;;;;;;4983776;28;45751;-81
2023/06/05 01:56:08;;;;;;;;;5.00;5.00;;;;;;;;4988770;28;45757;-81
2023/06/05 01:58:33;;;;;;;;;6.33;4.33;;;;;;;;4983232;28;45361;-81
2023/06/05 02:00:59;;;;;;;;;0.67;0.67;;;;;;;;4979690;28;45752;-80
2023/06/05 02:03:25;;;;;;;;;4.33;3.00;;;;;;;;4980727;28;47226;-81
2023/06/05 02:05:54;;;;;;;;;4.33;3.67;;;;;;;;4983323;28;45676;-82
2023/06/05 02:08:22;;;;;;;;;3.67;3.67;;;;;;;;4988973;28;45438;-83
2023/06/05 02:10:48;;;;;;;;;7.67;6.00;;;;;;;;4976773;28;45765;-81
2023/06/05 02:13:18;;;;;;;;;7.00;7.00;;;;;;;;4980560;28;46619;-83
2023/06/05 02:15:44;;;;;;;;;2.67;1.00;;;;;;;;4980761;28;45885;-82
2023/06/05 02:18:10;;;;;;;;;8.67;6.67;;;;;;;;4983638;28;45575;-81
2023/06/05 02:20:35;;;;;;;;;7.33;5.00;;;;;;;;4990434;28;45510;-84
2023/06/05 02:23:02;;;;;;;;;6.67;4.33;;;;;;;;5003220;28;48190;-82
2023/06/05 02:25:28;;;;;;;;;4.00;3.00;;;;;;;;5009500;28;45233;-82
2023/06/05 02:27:53;;;;;;;;;5.33;5.00;;;;;;;;5005770;28;44700;-80
2023/06/05 02:30:19;;;;;;;;;6.00;6.00;;;;;;;;5012875;28;45269;-81
2023/06/05 02:32:45;;;;;;;;;8.67;4.33;;;;;;;;5010551;28;46178;-82
2023/06/05 02:35:11;;;;;;;;;7.33;4.33;;;;;;;;5007687;28;45412;-84
2023/06/05 02:37:43;;;;;;;;;10.33;5.67;;;;;;;;5007187;28;45434;-80
2023/06/05 02:40:09;;;;;;;;;6.67;6.00;;;;;;;;5007289;28;46144;-82
2023/06/05 02:42:35;;;;;;;;;6.00;5.33;;;;;;;;5009157;28;45104;-82
2023/06/05 02:45:00;;;;;;;;;9.33;6.00;;;;;;;;5022513;28;45405;-82
2023/06/05 02:47:25;;;;;;;;;5.67;5.67;;;;;;;;5011848;28;44774;-80
2023/06/05 02:49:51;;;;;;;;;6.33;4.00;;;;;;;;5009575;28;45443;-82
2023/06/05 02:52:16;;;;;;;;;6.67;5.33;;;;;;;;5012529;28;47139;-83
2023/06/05 02:54:41;;;;;;;;;5.33;5.00;;;;;;;;5004105;28;45314;-82
2023/06/05 02:57:07;;;;;;;;;15.00;9.00;;;;;;;;5012059;28;44831;-84
2023/06/05 02:59:33;;;;;;;;;9.33;7.33;;;;;;;;5014640;28;46575;-82
2023/06/05 03:01:58;;;;;;;;;8.67;6.33;;;;;;;;5014329;28;47199;-84
2023/06/05 03:04:24;;;;;;;;;7.00;7.00;;;;;;;;5013480;28;45494;-81
2023/06/05 03:06:50;;;;;;;;;7.67;6.00;;;;;;;;5004743;28;45400;-82
2023/06/05 03:09:16;;;;;;;;;6.00;6.00;;;;;;;;5008831;28;45383;-83
2023/06/05 03:11:41;;;;;;;;;8.67;7.33;;;;;;;;5011125;28;45479;-81
2023/06/05 03:14:06;;;;;;;;;5.33;5.33;;;;;;;;5012097;28;44881;-80
2023/06/05 03:16:37;;;;;;;;;5.67;5.00;;;;;;;;5011363;28;45148;-82
2023/06/05 03:19:03;;;;;;;;;6.67;6.67;;;;;;;;5012950;28;45966;-82
2023/06/05 03:21:28;;;;;;;;;8.33;5.33;;;;;;;;4989643;28;45597;-82
2023/06/05 03:23:53;;;;;;;;;12.00;6.67;;;;;;;;5001048;28;44849;-83
2023/06/05 03:26:19;;;;;;;;;10.67;8.33;;;;;;;;5002580;28;44886;-82
2023/06/05 03:28:44;;;;;;;;;6.67;6.67;;;;;;;;5010591;28;45399;-81
2023/06/05 03:31:10;;;;;;;;;10.33;8.00;;;;;;;;5004574;28;45411;-82
2023/06/05 03:33:35;;;;;;;;;9.00;7.67;;;;;;;;5009466;28;45402;-81
2023/06/05 03:36:00;;;;;;;;;9.67;7.33;;;;;;;;5003309;28;44842;-80
2023/06/05 03:38:26;;;;;;;;;7.33;6.33;;;;;;;;5019620;28;45383;-82
2023/06/05 03:40:51;;;;;;;;;9.67;7.00;;;;;;;;5006890;28;45505;-81
2023/06/05 03:43:16;;;;;;;;;6.33;6.33;;;;;;;;5006753;28;44758;-80
2023/06/05 03:45:42;;;;;;;;;10.00;7.33;;;;;;;;5008974;28;45493;-80
2023/06/05 03:48:08;;;;;;;;;6.33;4.67;;;;;;;;5000109;28;45927;-82
2023/06/05 03:50:37;;;;;;;;;8.00;7.00;;;;;;;;5005904;28;45827;-81
2023/06/05 03:53:03;;;;;;;;;9.00;7.67;;;;;;;;5012067;28;45423;-81
2023/06/05 03:56:01;;;;;;;;;9.67;5.00;;;;;;;;5019254;28;45041;-88
2023/06/05 04:07:50;;;;;;;;;10.33;9.33;;;;;;;;5011711;28;45268;-80
2023/06/05 04:10:15;;;;;;;;;9.00;6.67;;;;;;;;5007877;28;45212;-81
2023/06/05 04:12:41;;;;;;;;;14.00;12.00;;;;;;;;5017189;28;45203;-82
2023/06/05 04:15:06;;;;;;;;;8.33;8.33;;;;;;;;5014934;28;44781;-81
2023/06/05 04:17:32;;;;;;;;;10.67;8.67;;;;;;;;5015576;28;45474;-82
2023/06/05 04:19:57;;;;;;;;;14.33;11.67;;;;;;;;5008573;28;45414;-81
2023/06/05 04:22:22;;;;;;;;;11.33;10.33;;;;;;;;5009024;28;45195;-82
2023/06/05 04:24:47;;;;;;;;;25.67;19.33;;;;;;;;5008174;28;45535;-82
2023/06/05 04:27:14;;;;;;;;;13.00;11.00;;;;;;;;5014475;28;45341;-81
2023/06/05 04:29:39;;;;;;;;;19.33;17.00;;;;;;;;5009386;28;45383;-80
2023/06/05 04:32:04;;;;;;;;;9.00;9.00;;;;;;;;5010866;28;47287;-81
2023/06/05 04:34:52;;;;;;;;;8.33;4.67;;;;;;;;5006737;28;44740;-87
2023/06/05 04:37:17;;;;;;;;;16.67;12.67;;;;;;;;5019596;28;44699;-89
2023/06/05 04:39:46;;;;;;;;;12.33;10.67;;;;;;;;5015511;28;44912;-88
2023/06/05 04:42:13;;;;;;;;;9.33;8.33;;;;;;;;5021981;28;45150;-88
2023/06/05 04:44:38;;;;;;;;;8.67;8.33;;;;;;;;5013807;28;44685;-86
2023/06/05 04:50:08;;;;;;;;;10.00;8.33;;;;;;;;4993472;22;45529;-70
2023/06/05 04:52:39;;;;;;;;;10.33;10.33;;;;;;;;4974109;28;45892;-66
2023/06/05 04:55:05;;;;;;;;;10.00;7.67;;;;;;;;4973559;28;46063;-65
2023/06/05 04:57:31;;;;;;;;;10.67;9.00;;;;;;;;4973086;28;45380;-68
2023/06/05 05:00:00;;;;;;;;;9.33;8.33;;;;;;;;4971438;28;45502;-70
2023/06/05 05:02:26;;;;;;;;;10.33;9.00;;;;;;;;4970339;28;46060;-70
2023/06/05 05:04:51;;;;;;;;;16.00;11.00;;;;;;;;4973262;28;45395;-69
2023/06/05 05:07:16;;;;;;;;;12.33;8.67;;;;;;;;4970551;28;45383;-72
2023/06/05 05:09:42;;;;;;;;;10.00;8.67;;;;;;;;4972309;28;45633;-77
2023/06/05 05:12:09;;;;;;;;;11.33;10.33;;;;;;;;4975246;28;46236;-78
2023/06/05 05:14:34;;;;;;;;;13.33;10.33;;;;;;;;4972980;28;45825;-74
2023/06/05 05:17:01;;;;;;;;;12.67;8.67;;;;;;;;4971497;28;45683;-74
2023/06/05 05:19:27;;;;;;;;;10.00;9.33;;;;;;;;4970342;28;45658;-74
2023/06/05 05:21:52;;;;;;;;;10.33;7.33;;;;;;;;4975964;28;45556;-75
2023/06/05 05:24:18;;;;;;;;;12.00;9.33;;;;;;;;4972915;28;45561;-72
2023/06/05 05:26:43;;;;;;;;;16.33;11.00;;;;;;;;4969707;28;45812;-72
2023/06/05 05:29:08;;;;;;;;;10.67;9.00;;;;;;;;4968915;28;45703;-70
2023/06/05 05:31:34;;;;;;;;;8.67;8.67;;;;;;;;4968138;28;47119;-72
2023/06/05 05:33:59;;;;;;;;;13.67;10.00;;;;;;;;4971200;28;45547;-71
2023/06/05 05:36:26;;;;;;;;;9.33;9.33;;;;;;;;4973004;28;45801;-71
2023/06/05 05:38:51;;;;;;;;;12.00;7.67;;;;;;;;4972797;28;45810;-73
2023/06/05 05:41:17;;;;;;;;;10.00;9.00;;;;;;;;4968774;28;45941;-71
2023/06/05 05:43:42;;;;;;;;;13.33;11.00;;;;;;;;4972866;28;45335;-72
2023/06/05 05:46:07;;;;;;;;;11.33;8.00;;;;;;;;4968376;28;45667;-70
2023/06/05 05:48:35;;;;;;;;;6.67;6.67;;;;;;;;4973414;28;45696;-73
2023/06/05 05:51:00;;;;;;;;;10.00;8.33;;;;;;;;4970826;28;46909;-72
2023/06/05 05:53:25;;;;;;;;;16.00;11.33;;;;;;;;4972197;28;45505;-70
2023/06/05 05:55:51;;;;;;;;;14.67;9.33;;;;;;;;4971201;28;45440;-70
2023/06/05 05:58:16;;;;;;;;;14.00;9.67;;;;;;;;4972361;28;45474;-71
2023/06/05 06:00:42;;;;;;;;;9.67;9.33;;;;;;;;4969471;28;46821;-72
2023/06/05 06:03:16;;;;;;;;;13.00;10.33;;;;;;;;4973026;28;45372;-71
2023/06/05 06:05:42;;;;;;;;;12.33;10.67;;;;;;;;4972656;28;45447;-70
2023/06/05 06:08:07;;;;;;;;;10.00;10.00;;;;;;;;4968537;28;45771;-71
2023/06/05 06:10:33;;;;;;;;;8.33;7.00;;;;;;;;4970524;28;46303;-71
2023/06/05 06:12:58;;;;;;;;;11.00;9.33;;;;;;;;4968518;28;45375;-71
2023/06/05 06:15:24;;;;;;;;;27.00;25.33;;;;;;;;4968233;28;45853;-70
2023/06/05 06:17:49;;;;;;;;;11.00;9.67;;;;;;;;4969351;28;45619;-72
2023/06/05 06:20:15;;;;;;;;;7.00;6.00;;;;;;;;4972550;28;46112;-71
2023/06/05 06:22:41;;;;;;;;;13.00;9.00;;;;;;;;4970448;28;45431;-72
2023/06/05 06:25:07;;;;;;;;;11.00;7.33;;;;;;;;4971579;28;45467;-70
2023/06/05 06:27:32;;;;;;;;;8.33;7.00;;;;;;;;4972197;28;45815;-71
2023/06/05 06:29:58;;;;;;;;;10.00;8.33;;;;;;;;4964830;28;47022;-71
2023/06/05 06:32:25;;;;;;;;;15.25;12.75;;;;;;;;4970782;28;45917;-72
2023/06/05 06:34:51;;;;;;;;;10.00;8.33;;;;;;;;4971015;28;46060;-70
2023/06/05 06:37:16;;;;;;;;;10.75;8.75;;;;;;;;4971378;28;46027;-72
2023/06/05 06:39:42;;;;;;;;;10.75;8.50;;;;;;;;4967876;28;46134;-71
2023/06/05 06:42:09;;;;;;;;;8.00;8.00;;;;;;;;4969346;28;45930;-74
2023/06/05 06:44:35;;;;;;;;;8.25;7.75;;;;;;;;4970276;28;45698;-70
2023/06/05 06:47:00;;;;;;;;;9.75;8.00;;;;;;;;4972593;28;45346;-70
2023/06/05 06:49:26;;;;;;;;;7.00;7.00;;;;;;;;4969975;28;45784;-76
2023/06/05 06:51:51;;;;;;;;;8.33;8.00;;;;;;;;4968458;28;45721;-73
2023/06/05 06:54:17;;;;;;;;;8.33;7.00;;;;;;;;4970874;28;45844;-72
2023/06/05 06:56:42;;;;;;;;;8.33;7.33;;;;;;;;4970600;28;45911;-72
2023/06/05 06:59:14;;;;;;;;;6.33;6.33;;;;;;;;4972161;28;45678;-71
2023/06/05 07:01:45;;;;;;;;;7.25;7.25;;;;;;;;4966781;28;45637;-71
2023/06/05 07:04:10;;;;;;;;;9.75;9.75;;;;;;;;4971640;28;45415;-70
2023/06/05 07:06:36;;;;;;;;;10.00;10.00;;;;;;;;4971431;28;45727;-71
2023/06/05 07:09:01;;;;;;;;;9.67;8.00;;;;;;;;4971218;28;45642;-71
2023/06/05 07:11:27;;;;;;;;;7.25;7.25;;;;;;;;4971608;28;45434;-72
2023/06/05 07:13:54;;;;;;;;;9.00;8.50;;;;;;;;4970885;28;45424;-73
2023/06/05 07:16:19;;;;;;;;;11.67;8.33;;;;;;;;4971592;28;45694;-71
2023/06/05 07:18:44;;;;;;;;;9.50;8.00;;;;;;;;4969784;28;45652;-71
2023/06/05 07:21:10;;;;;;;;;10.00;8.00;;;;;;;;4969643;28;45540;-70
2023/06/05 07:23:36;;;;;;;;;7.75;7.00;;;;;;;;4971526;28;45472;-71
2023/06/05 07:26:01;;;;;;;;;8.25;6.75;;;;;;;;4972474;28;45270;-71
2023/06/05 07:28:27;;;;;;;;;10.25;9.75;;;;;;;;4974807;28;45604;-71
2023/06/05 07:30:52;;;;;;;;;8.00;8.00;;;;;;;;4973366;28;45634;-70
2023/06/05 07:33:18;;;;;;;;;7.25;6.50;;;;;;;;4975830;28;45637;-71
2023/06/05 07:35:45;;;;;;;;;7.25;7.25;;;;;;;;4975021;28;45338;-71
2023/06/05 07:38:10;;;;;;;;;6.33;6.33;;;;;;;;4974585;28;46092;-72
2023/06/05 07:40:38;;;;;;;;;9.75;9.00;;;;;;;;4974843;28;45755;-69
2023/06/05 07:43:04;;;;;;;;;8.75;7.75;;;;;;;;4975208;28;45827;-71
2023/06/05 07:45:29;;;;;;;;;6.50;6.00;;;;;;;;4974240;28;45830;-69
2023/06/05 07:47:54;;;;;;;;;9.67;8.00;;;;;;;;4977304;28;45734;-70
2023/06/05 07:50:20;;;;;;;;;10.33;9.33;;;;;;;;4974946;28;45763;-72
2023/06/05 07:52:45;;;;;;;;;8.00;7.00;;;;;;;;4974682;28;45805;-71
2023/06/05 07:55:10;;;;;;;;;7.67;7.00;;;;;;;;4973252;28;45852;-70
2023/06/05 07:57:36;;;;;;;;;10.67;8.33;;;;;;;;4972753;28;46332;-71
2023/06/05 08:00:05;;;;;;;;;9.50;7.00;;;;;;;;4974747;28;45422;-72
2023/06/05 08:02:30;;;;;;;;;6.75;4.75;;;;;;;;4973101;28;45484;-70
2023/06/05 08:04:56;;;;;;;;;6.67;6.33;;;;;;;;4974893;28;45457;-71
2023/06/05 08:07:21;;;;;;;;;11.25;9.00;;;;;;;;4973283;28;46850;-70
2023/06/05 08:09:46;;;;;;;;;13.67;8.67;;;;;;;;4971987;28;45738;-71
2023/06/05 08:12:12;;;;;;;;;6.00;6.00;;;;;;;;4971385;28;45648;-70
2023/06/05 08:14:37;;;;;;;;;11.00;7.00;;;;;;;;4974810;28;45495;-72
2023/06/05 08:17:02;;;;;;;;;10.00;8.00;;;;;;;;4971193;28;46763;-71
2023/06/05 08:19:28;;;;;;;;;8.75;5.75;;;;;;;;4974861;28;45818;-71
2023/06/05 08:21:59;;;;;;;;;7.25;5.00;;;;;;;;4973592;28;45877;-71
2023/06/05 08:24:26;;;;;;;;;6.75;5.75;;;;;;;;4973012;28;47521;-71
2023/06/05 08:26:52;;;;;;;;;7.33;6.00;;;;;;;;4972473;28;45819;-70
2023/06/05 08:29:17;;;;;;;;;5.50;5.50;;;;;;;;4970990;28;45699;-70
2023/06/05 08:31:42;;;;;;;;;5.75;5.50;;;;;;;;4970418;28;45761;-70
2023/06/05 08:34:07;;;;;;;;;6.33;5.00;;;;;;;;4974481;28;45450;-69
2023/06/05 08:36:34;;;;;;;;;6.00;5.67;;;;;;;;4972220;28;47235;-70
2023/06/05 08:39:00;;;;;;;;;5.33;5.33;;;;;;;;4969270;28;45775;-71
2023/06/05 08:41:25;;;;;;;;;10.00;7.33;;;;;;;;4972698;28;45788;-69
2023/06/05 08:43:51;;;;;;;;;6.33;6.00;;;;;;;;4973300;28;45399;-72
2023/06/05 08:46:17;;;;;;;;;4.75;4.75;;;;;;;;4973967;28;46606;-72
2023/06/05 08:48:43;;;;;;;;;8.00;7.67;;;;;;;;4973706;28;45757;-71
2023/06/05 08:51:11;;;;;;;;;9.33;8.33;;;;;;;;4972720;28;45746;-70
2023/06/05 08:53:38;;;;;;;;;8.33;7.33;;;;;;;;4973045;28;45564;-71
2023/06/05 08:56:04;;;;;;;;;6.25;6.25;;;;;;;;4973831;28;46869;-70
2023/06/05 08:58:29;;;;;;;;;7.00;7.00;;;;;;;;4970428;28;45854;-71
2023/06/05 09:00:54;;;;;;;;;7.50;7.00;;;;;;;;4969714;28;45836;-72
2023/06/05 09:03:20;;;;;;;;;6.00;6.00;;;;;;;;4969747;28;45721;-70
2023/06/05 09:05:48;;;;;;;;;7.75;4.75;;;;;;;;4972658;28;46548;-71
2023/06/05 09:08:15;;;;;;;;;7.75;7.75;;;;;;;;4967063;28;45467;-71
2023/06/05 09:10:40;;;;;;;;;6.25;6.00;;;;;;;;4973505;28;45863;-69
2023/06/05 09:13:06;;;;;;;;;9.50;6.25;;;;;;;;4972642;28;45924;-71
2023/06/05 09:15:33;;;;;;;;;9.00;7.00;;;;;;;;4972321;28;45717;-71
2023/06/05 09:18:09;;;;;;;;;7.00;7.00;;;;;;;;4973709;28;46073;-69
2023/06/05 09:20:42;;;;;;;;;6.50;6.50;;;;;;;;4973211;28;45442;-71
2023/06/05 09:23:26;;;;;;;;;5.25;5.25;;;;;;;;4970627;28;45639;-70
2023/06/05 09:25:52;;;;;;;;;8.50;6.00;;;;;;;;4974416;28;46252;-70
2023/06/05 09:28:18;;;;;;;;;5.75;5.75;;;;;;;;4974513;28;45471;-70
2023/06/05 09:30:56;;;;;;;;;6.75;6.00;;;;;;;;4974704;28;45404;-73
2023/06/05 09:33:23;;;;;;;;;8.75;6.75;;;;;;;;4973719;28;46779;-72
2023/06/05 09:36:00;;;;;;;;;8.00;6.33;;;;;;;;4974405;28;47300;-71
2023/06/05 09:38:30;;;;;;;;;6.67;6.00;;;;;;;;4984840;28;45515;-72
2023/06/05 09:41:21;;;;;;;;;10.00;7.75;;;;;;;;4971466;28;45399;-70
2023/06/05 09:43:49;;;;;;;;;5.50;4.50;;;;;;;;4972479;28;45567;-70
2023/06/05 09:46:15;;;;;;;;;5.00;5.00;;;;;;;;4973987;28;47107;-71
2023/06/05 09:48:43;;;;;;;;;6.25;6.25;;;;;;;;4967251;28;45683;-73
2023/06/05 09:51:10;;;;;;;;;8.50;6.75;;;;;;;;4968442;28;45524;-78
2023/06/05 09:53:40;;;;;;;;;5.50;5.50;;;;;;;;4973282;28;45592;-78
2023/06/05 09:56:07;;;;;;;;;8.00;5.25;;;;;;;;4977119;28;45493;-78
2023/06/05 09:58:32;;;;;;;;;7.33;6.33;;;;;;;;4965320;28;45729;-77
2023/06/05 10:01:00;;;;;;;;;5.50;4.50;;;;;;;;4970632;28;45300;-78
2023/06/05 10:03:27;;;;;;;;;9.00;7.67;;;;;;;;4968502;28;45497;-81
2023/06/05 10:05:53;;;;;;;;;7.00;7.00;;;;;;;;4967243;28;45365;-73
2023/06/05 10:08:18;;;;;;;;;6.25;6.25;;;;;;;;4974229;28;45335;-74
2023/06/05 10:10:43;;;;;;;;;7.50;6.25;;;;;;;;4975086;28;45559;-72
2023/06/05 10:13:11;;;;;;;;;5.00;5.00;;;;;;;;4984548;28;45609;-75
2023/06/05 10:15:38;;;;;;;;;6.00;5.25;;;;;;;;4974793;28;46739;-77
2023/06/05 10:18:04;;;;;;;;;6.00;6.00;;;;;;;;4979708;28;45434;-74
2023/06/05 10:20:29;;;;;;;;;5.50;5.50;;;;;;;;4976334;28;45689;-74
2023/06/05 10:22:55;;;;;;;;;5.00;5.00;;;;;;;;4968875;28;46399;-71
2023/06/05 10:25:22;;;;;;;;;7.50;6.25;;;;;;;;4973573;28;46022;-75
2023/06/05 10:27:53;;;;;;;;;5.25;5.25;;;;;;;;4967053;28;45492;-74
2023/06/05 10:30:30;;;;;;;;;6.75;6.75;;;;;;;;4972803;28;46012;-76
2023/06/05 10:32:57;;;;;;;;;4.00;3.50;;;;;;;;4971987;28;45805;-76
2023/06/05 10:36:00;;;;;;;;;7.00;6.00;;;;;;;;4975019;28;46371;-73
2023/06/05 10:38:26;;;;;;;;;6.50;6.50;;;;;;;;4925500;28;45799;-73
2023/06/05 10:40:56;;;;;;;;;6.00;6.00;;;;;;;;4963541;28;46818;-74
2023/06/05 10:43:31;;;;;;;;;6.00;6.00;;;;;;;;4970608;28;45624;-74
2023/06/05 10:46:01;;;;;;;;;6.67;6.67;;;;;;;;4972277;28;45403;-73
2023/06/05 10:48:44;;;;;;;;;8.00;8.00;;;;;;;;4972847;28;45505;-74
2023/06/05 10:51:28;;;;;;;;;9.00;7.67;;;;;;;;4971757;28;45452;-75
2023/06/05 10:53:53;;;;;;;;;8.50;5.50;;;;;;;;4971303;28;45457;-77
2023/06/05 10:56:39;;;;;;;;;7.75;6.25;;;;;;;;4973195;28;45576;-75
2023/06/05 10:59:11;;;;;;;;;8.00;5.00;;;;;;;;4984802;28;45468;-74
2023/06/05 11:01:36;;;;;;;;;8.25;8.25;;;;;;;;4972648;28;45776;-75
2023/06/05 11:04:02;;;;;;;;;5.00;5.00;;;;;;;;4973836;28;45403;-75
2023/06/05 11:06:27;;;;;;;;;9.25;7.00;;;;;;;;4972851;28;46092;-74
2023/06/05 11:09:12;;;;;;;;;8.25;6.50;;;;;;;;4971135;28;45410;-75
2023/06/05 11:11:57;;;;;;;;;6.67;6.67;;;;;;;;4973127;28;45700;-72
2023/06/05 11:14:23;;;;;;;;;8.00;8.00;;;;;;;;4983331;28;46423;-74
2023/06/05 11:16:48;;;;;;;;;7.00;7.00;;;;;;;;4972635;28;46800;-74
2023/06/05 11:19:13;;;;;;;;;7.67;7.67;;;;;;;;4987045;28;45386;-73
2023/06/05 11:22:05;;;;;;;;;9.75;8.75;;;;;;;;4974626;28;45640;-70
2023/06/05 11:24:31;;;;;;;;;7.25;5.50;;;;;;;;4968649;28;45419;-72
2023/06/05 11:26:56;;;;;;;;;6.25;6.25;;;;;;;;4970870;28;45847;-70
2023/06/05 11:29:25;;;;;;;;;9.25;7.50;;;;;;;;4965159;28;45769;-71
2023/06/05 11:31:51;;;;;;;;;10.50;8.25;;;;;;;;4967408;28;46061;-74
2023/06/05 11:34:16;;;;;;;;;9.50;7.50;;;;;;;;4969753;28;47246;-72
2023/06/05 11:36:41;;;;;;;;;9.00;6.75;;;;;;;;4975453;28;45754;-71
2023/06/05 11:39:07;;;;;;;;;3.33;3.33;;;;;;;;4975402;28;45470;-69
2023/06/05 11:41:33;;;;;;;;;4.00;4.00;;;;;;;;4971296;28;45624;-71
2023/06/05 11:43:58;;;;;;;;;7.33;6.00;;;;;;;;4971015;28;45708;-72
2023/06/05 11:46:40;;;;;;;;;15.00;9.00;;;;;;;;4973611;28;45751;-68
2023/06/05 11:49:05;;;;;;;;;9.00;6.33;;;;;;;;4971690;28;45488;-71
2023/06/05 11:51:37;;;;;;;;;10.67;7.67;;;;;;;;4966682;28;45440;-68
2023/06/05 11:54:04;;;;;;;;;8.67;8.67;;;;;;;;4970367;28;45367;-70
2023/06/05 11:56:30;;;;;;;;;7.67;6.33;;;;;;;;4964514;28;46904;-69
2023/06/05 11:58:55;;;;;;;;;7.67;7.00;;;;;;;;4962938;28;45352;-69
2023/06/05 12:01:31;;;;;;;;;5.00;5.00;;;;;;;;4956868;28;45757;-70
2023/06/05 12:04:06;;;;;;;;;6.00;3.67;;;;;;;;4962706;28;45719;-71
2023/06/05 12:06:32;;;;;;;;;4.00;4.00;;;;;;;;4970835;28;46685;-70
2023/06/05 12:09:11;;;;;;;;;7.33;7.33;;;;;;;;4971298;28;45365;-70
2023/06/05 12:11:37;;;;;;;;;6.00;6.00;;;;;;;;4975353;28;45515;-69
2023/06/05 12:14:03;;;;;;;;;7.67;5.00;;;;;;;;4973929;28;46438;-73
2023/06/05 12:16:44;;;;;;;;;9.33;7.67;;;;;;;;4977017;28;46593;-70
2023/06/05 12:19:18;;;;;;;;;7.67;7.67;;;;;;;;4974539;28;45793;-70
2023/06/05 12:21:44;;;;;;;;;8.67;6.00;;;;;;;;4973863;28;45685;-70
2023/06/05 12:24:10;;;;;;;;;5.67;4.00;;;;;;;;4974840;28;45636;-70
2023/06/05 12:26:54;;;;;;;;;8.33;6.00;;;;;;;;4974989;28;45639;-71
2023/06/05 12:29:24;;;;;;;;;7.33;7.33;;;;;;;;4975117;28;45458;-70
2023/06/05 12:31:50;;;;;;;;;9.67;6.00;;;;;;;;4975370;28;45760;-70
2023/06/05 12:34:15;;;;;;;;;8.67;7.00;;;;;;;;4974929;28;45838;-70
2023/06/05 12:36:42;;;;;;;;;7.33;7.00;;;;;;;;4974295;28;46837;-70
2023/06/05 12:39:10;;;;;;;;;5.00;5.00;;;;;;;;4974603;28;45394;-71
2023/06/05 12:41:35;;;;;;;;;7.33;7.33;;;;;;;;4975495;28;45507;-69
2023/06/05 12:44:01;;;;;;;;;7.33;6.00;;;;;;;;4973261;28;45462;-70
2023/06/05 12:46:27;;;;;;;;;6.00;6.00;;;;;;;;4975640;28;45923;-69
2023/06/05 12:48:53;;;;;;;;;7.00;7.00;;;;;;;;4979619;28;45395;-69
2023/06/05 12:51:18;;;;;;;;;9.33;6.33;;;;;;;;4973921;28;45280;-70
2023/06/05 12:53:43;;;;;;;;;8.00;8.00;;;;;;;;4974388;28;45780;-69
2023/06/05 12:56:11;;;;;;;;;4.00;4.00;;;;;;;;4958368;28;45344;-70
2023/06/05 12:58:36;;;;;;;;;7.00;7.00;;;;;;;;4958504;28;45797;-69
2023/06/05 13:01:01;;;;;;;;;6.67;6.67;;;;;;;;4975182;28;45742;-71
2023/06/05 13:03:28;;;;;;;;;4.33;4.33;;;;;;;;4975422;28;45815;-69
2023/06/05 13:05:53;;;;;;;;;1.33;1.33;;;;;;;;4973506;28;47618;-69
2023/06/05 13:08:18;;;;;;;;;6.33;6.33;;;;;;;;4972171;28;45503;-70
2023/06/05 13:10:44;;;;;;;;;7.25;6.25;;;;;;;;4975673;28;45409;-71
2023/06/05 13:13:09;;;;;;;;;7.33;6.00;;;;;;;;4974149;28;46017;-70
2023/06/05 13:15:34;;;;;;;;;6.33;4.67;;;;;;;;4973814;28;46291;-71
2023/06/05 13:17:59;;;;;;;;;6.00;6.00;;;;;;;;4971006;28;45485;-69
2023/06/05 13:20:25;;;;;;;;;6.00;4.33;;;;;;;;4971786;28;45224;-74
2023/06/05 13:22:51;;;;;;;;;8.67;7.00;;;;;;;;4969386;28;45709;-71
2023/06/05 13:25:16;;;;;;;;;3.67;3.67;;;;;;;;4973426;28;46940;-71
2023/06/05 13:27:42;;;;;;;;;1.33;1.33;;;;;;;;4974749;28;45474;-70
2023/06/05 13:30:08;;;;;;;;;8.00;5.33;;;;;;;;4975493;28;45586;-69
2023/06/05 13:32:34;;;;;;;;;5.33;5.33;;;;;;;;4973309;28;45545;-72
2023/06/05 13:34:59;;;;;;;;;5.67;5.67;;;;;;;;4974415;28;46342;-71
2023/06/05 13:37:25;;;;;;;;;6.33;5.33;;;;;;;;4972069;28;45440;-73
2023/06/05 13:39:50;;;;;;;;;9.33;6.67;;;;;;;;4973132;28;45843;-73
2023/06/05 13:42:16;;;;;;;;;7.33;7.00;;;;;;;;4974524;28;46081;-73
2023/06/05 13:44:41;;;;;;;;;12.00;10.00;;;;;;;;4975812;28;46534;-72
2023/06/05 13:47:08;;;;;;;;;6.00;6.00;;;;;;;;4967681;28;45620;-70
2023/06/05 13:49:34;;;;;;;;;6.33;5.67;;;;;;;;4971479;28;45760;-69
2023/06/05 13:51:59;;;;;;;;;11.33;7.67;;;;;;;;4971072;28;46709;-71
2023/06/05 13:54:24;;;;;;;;;7.67;6.33;;;;;;;;4972451;28;45925;-67
2023/06/05 13:56:51;;;;;;;;;9.00;6.00;;;;;;;;4972166;28;45726;-69
2023/06/05 13:59:16;;;;;;;;;8.33;4.33;;;;;;;;4972996;28;45996;-73
2023/06/05 14:01:42;;;;;;;;;8.00;8.00;;;;;;;;4974465;28;45615;-74
2023/06/05 14:04:07;;;;;;;;;5.00;5.00;;;;;;;;4973897;28;45617;-71
2023/06/05 14:06:36;;;;;;;;;5.00;5.00;;;;;;;;4986421;28;45378;-71
2023/06/05 14:09:02;;;;;;;;;5.00;4.00;;;;;;;;4974951;28;45642;-71
2023/06/05 14:11:27;;;;;;;;;8.33;7.00;;;;;;;;4968959;28;45413;-71
2023/06/05 14:13:52;;;;;;;;;6.67;6.67;;;;;;;;4975293;28;45627;-70
2023/06/05 14:16:18;;;;;;;;;7.00;5.67;;;;;;;;4974682;28;45922;-70
2023/06/05 14:18:44;;;;;;;;;9.33;6.00;;;;;;;;4974815;28;45441;-71
2023/06/05 14:21:09;;;;;;;;;7.33;6.00;;;;;;;;4975794;28;45448;-70
2023/06/05 14:23:34;;;;;;;;;5.67;5.67;;;;;;;;4975173;28;45267;-74
2023/06/05 14:26:00;;;;;;;;;5.33;5.33;;;;;;;;4972681;28;46482;-75
2023/06/05 14:28:25;;;;;;;;;7.67;7.00;;;;;;;;4973915;28;45527;-74
2023/06/05 14:30:50;;;;;;;;;6.67;6.67;;;;;;;;4969544;28;45771;-74
2023/06/05 14:33:19;;;;;;;;;7.67;5.00;;;;;;;;4966985;28;45795;-73
2023/06/05 14:35:44;;;;;;;;;5.67;5.67;;;;;;;;4973273;28;45469;-74
2023/06/05 14:38:12;;;;;;;;;7.00;6.00;;;;;;;;4973962;28;45638;-73
2023/06/05 14:40:41;;;;;;;;;4.00;4.00;;;;;;;;4981420;28;45809;-73
2023/06/05 14:43:06;;;;;;;;;8.00;5.67;;;;;;;;4975633;28;45341;-72
2023/06/05 14:45:32;;;;;;;;;6.00;6.00;;;;;;;;4975946;28;45367;-74
2023/06/05 14:47:57;;;;;;;;;6.00;6.00;;;;;;;;4975235;28;45488;-71
2023/06/05 14:50:22;;;;;;;;;10.33;7.33;;;;;;;;4975546;28;45838;-70
2023/06/05 14:52:48;;;;;;;;;7.33;5.67;;;;;;;;4973180;28;46315;-70
2023/06/05 14:55:13;;;;;;;;;5.67;5.67;;;;;;;;4974147;28;45639;-70